createdAt,value
2019-03-25T00:02:00.595Z,100655.17
2019-03-25T00:04:31.254Z,100658.63
2019-03-25T00:07:02.048Z,100653.66
2019-03-25T00:09:33.223Z,100654.33
2019-03-25T00:12:03.968Z,100651.11
2019-03-25T00:14:34.633Z,100657.22
2019-03-25T00:17:05.333Z,100650.11
2019-03-25T00:19:36.259Z,100649.19
2019-03-25T00:22:06.946Z,100646.61
2019-03-25T00:24:39.190Z,100646.18
2019-03-25T00:27:10.021Z,100642.84
2019-03-25T00:29:40.721Z,100636.41
2019-03-25T00:32:11.730Z,100629.78
2019-03-25T00:34:42.459Z,100626.48
2019-03-25T00:37:13.192Z,100625.27
2019-03-25T00:39:43.878Z,100624.98
2019-03-25T00:42:14.542Z,100621.09
2019-03-25T00:44:45.239Z,100612.89
2019-03-25T00:47:16.260Z,100617.84
2019-03-25T00:49:47.305Z,100620.98
2019-03-25T00:52:18.255Z,100607.50
2019-03-25T00:54:50.235Z,100608.75
2019-03-25T00:57:21.556Z,100604.21
2019-03-25T00:59:52.399Z,100606.34
2019-03-25T01:02:23.147Z,100602.52
2019-03-25T01:04:53.827Z,100598.83
2019-03-25T01:07:24.501Z,100594.48
2019-03-25T01:09:55.184Z,100563.78
2019-03-25T01:12:26.144Z,100591.44
2019-03-25T01:14:57.128Z,100582.02
2019-03-25T01:17:28.803Z,100583.38
2019-03-25T01:19:59.468Z,100582.82
2019-03-25T01:22:30.153Z,100582.16
2019-03-25T01:25:02.245Z,100570.06
2019-03-25T01:27:33.184Z,100571.92
2019-03-25T01:30:06.184Z,100571.65
2019-03-25T01:32:36.893Z,100565.31
2019-03-25T01:35:08.490Z,100570.25
2019-03-25T01:37:39.250Z,100565.77
2019-03-25T01:40:10.519Z,100559.95
2019-03-25T01:42:41.197Z,100565.23
2019-03-25T01:45:12.264Z,100558.72
2019-03-25T01:47:42.934Z,100564.09
2019-03-25T01:50:13.665Z,100556.20
2019-03-25T01:52:44.332Z,100561.16
2019-03-25T01:55:14.994Z,100551.53
2019-03-25T01:57:45.684Z,100556.66
2019-03-25T02:00:16.782Z,100546.31
2019-03-25T02:02:48.072Z,100539.88
2019-03-25T02:05:18.759Z,100545.60
2019-03-25T02:07:49.744Z,100533.95
2019-03-25T02:10:20.768Z,100526.94
2019-03-25T02:12:51.805Z,100523.33
2019-03-25T02:15:22.752Z,100509.45
2019-03-25T02:17:53.701Z,100509.33
2019-03-25T02:20:26.588Z,100508.37
2019-03-25T02:22:56.873Z,100494.98
2019-03-25T02:25:28.075Z,100485.47
2019-03-25T02:27:59.017Z,100499.72
2019-03-25T02:30:29.712Z,100486.12
2019-03-25T02:33:00.411Z,100489.28
2019-03-25T02:35:31.416Z,100481.02
2019-03-25T02:38:02.097Z,100482.03
2019-03-25T02:40:33.062Z,100475.63
2019-03-25T02:43:03.754Z,100476.81
2019-03-25T02:45:34.728Z,100473.14
2019-03-25T02:48:05.981Z,100470.57
2019-03-25T02:50:36.653Z,100469.54
2019-03-25T02:53:07.309Z,100458.60
2019-03-25T02:55:41.844Z,100468.02
2019-03-25T02:58:10.341Z,100460.28
2019-03-25T03:00:41.552Z,100462.45
2019-03-25T03:03:12.253Z,100460.28
2019-03-25T03:05:42.968Z,100449.22
2019-03-25T03:08:13.632Z,100454.51
2019-03-25T03:10:44.357Z,100445.62
2019-03-25T03:13:15.287Z,100448.09
2019-03-25T03:15:46.304Z,100440.00
2019-03-25T03:18:17.453Z,100433.82
2019-03-25T03:20:48.145Z,100434.95
2019-03-25T03:23:18.853Z,100429.92
2019-03-25T03:25:57.156Z,100426.46
2019-03-25T03:28:22.274Z,100430.52
2019-03-25T03:30:53.001Z,100423.95
2019-03-25T03:33:23.711Z,100416.76
2019-03-25T03:35:54.403Z,100413.00
2019-03-25T03:38:25.110Z,100409.61
2019-03-25T03:40:57.011Z,100401.67
2019-03-25T03:43:27.692Z,100396.00
2019-03-25T03:45:58.382Z,100398.41
2019-03-25T03:48:29.048Z,100398.49
2019-03-25T03:51:00.366Z,100402.54
2019-03-25T03:53:31.123Z,100397.05
2019-03-25T03:56:12.896Z,100394.92
2019-03-25T03:58:36.494Z,100398.27
2019-03-25T04:01:07.226Z,100392.55
2019-03-25T04:03:37.897Z,100381.82
2019-03-25T04:06:08.600Z,100381.58
2019-03-25T04:08:39.577Z,100379.05
2019-03-25T04:11:10.622Z,100371.48
2019-03-25T04:13:41.309Z,100368.83
2019-03-25T04:16:13.357Z,100369.10
2019-03-25T04:18:44.050Z,100364.56
2019-03-25T04:21:15.074Z,100361.05
2019-03-25T04:23:46.527Z,100358.64
2019-03-25T04:26:28.437Z,100353.23
2019-03-25T04:28:49.815Z,100346.88
2019-03-25T04:31:20.869Z,100345.85
2019-03-25T04:33:51.705Z,100348.50
2019-03-25T04:36:22.376Z,100345.89
2019-03-25T04:38:53.379Z,100342.02
2019-03-25T04:41:24.070Z,100348.80
2019-03-25T04:43:54.747Z,100351.71
2019-03-25T04:46:25.788Z,100345.59
2019-03-25T04:48:56.818Z,100345.67
2019-03-25T04:51:27.866Z,100346.61
2019-03-25T04:53:58.513Z,100338.80
2019-03-25T04:56:38.982Z,100339.97
2019-03-25T04:59:05.404Z,100336.66
2019-03-25T05:01:35.719Z,100337.23
2019-03-25T05:04:06.432Z,100327.20
2019-03-25T05:06:37.371Z,100330.65
2019-03-25T05:09:08.377Z,100328.00
2019-03-25T05:11:39.346Z,100327.47
2019-03-25T05:14:10.388Z,100327.73
2019-03-25T05:16:41.326Z,100330.59
2019-03-25T05:19:11.997Z,100320.67
2019-03-25T05:21:42.773Z,100321.66
2019-03-25T05:24:13.430Z,100309.02
2019-03-25T05:26:51.039Z,100304.05
2019-03-25T05:29:16.766Z,100299.78
2019-03-25T05:31:47.809Z,100298.45
2019-03-25T05:34:18.734Z,100288.03
2019-03-25T05:36:49.427Z,100281.86
2019-03-25T05:39:20.504Z,100276.40
2019-03-25T05:41:56.135Z,100269.84
2019-03-25T05:44:27.105Z,100269.05
2019-03-25T05:46:57.857Z,100263.00
2019-03-25T05:49:28.702Z,100259.64
2019-03-25T05:51:59.411Z,100261.23
2019-03-25T05:54:30.221Z,100263.30
2019-03-25T05:57:02.726Z,100255.66
2019-03-25T05:59:33.626Z,100249.32
2019-03-25T06:02:06.509Z,100248.69
2019-03-25T06:04:37.199Z,100240.52
2019-03-25T06:07:07.878Z,100229.90
2019-03-25T06:09:38.556Z,100220.98
2019-03-25T06:12:09.225Z,100226.48
2019-03-25T06:14:39.882Z,100225.43
2019-03-25T06:17:10.620Z,100218.98
2019-03-25T06:19:41.628Z,100214.94
2019-03-25T06:22:12.580Z,100215.74
2019-03-25T06:24:43.277Z,100209.97
2019-03-25T06:27:14.695Z,100195.52
2019-03-25T06:29:45.716Z,100194.97
2019-03-25T06:32:16.436Z,100198.12
2019-03-25T06:34:47.214Z,100194.34
2019-03-25T06:37:17.988Z,100196.13
2019-03-25T06:39:48.690Z,100198.66
2019-03-25T06:42:19.347Z,100190.11
2019-03-25T06:44:50.338Z,100193.67
2019-03-25T06:47:20.991Z,100191.91
2019-03-25T06:49:52.101Z,100201.44
2019-03-25T06:52:22.866Z,100206.87
2019-03-25T06:54:54.042Z,100210.63
2019-03-25T06:57:25.869Z,100218.32
2019-03-25T06:59:56.769Z,100213.34
2019-03-25T07:02:28.122Z,100222.42
2019-03-25T07:04:58.801Z,100218.25
2019-03-25T07:07:29.471Z,100224.73
2019-03-25T07:10:00.491Z,100215.52
2019-03-25T07:12:31.416Z,100199.36
2019-03-25T07:15:02.087Z,100202.98
2019-03-25T07:17:32.778Z,100207.91
2019-03-25T07:20:04.862Z,100199.05
2019-03-25T07:22:35.556Z,100196.64
2019-03-25T07:25:07.934Z,100186.06
2019-03-25T07:27:38.659Z,100186.61
2019-03-25T07:30:11.576Z,100193.30
2019-03-25T07:32:42.743Z,100198.38
2019-03-25T07:35:13.663Z,100181.81
2019-03-25T07:37:44.716Z,100196.16
2019-03-25T07:40:15.522Z,100199.90
2019-03-25T07:42:46.174Z,100198.50
2019-03-25T07:45:17.397Z,100203.19
2019-03-25T07:47:48.173Z,100206.04
2019-03-25T07:50:18.823Z,100212.95
2019-03-25T07:52:49.822Z,100207.03
2019-03-25T07:55:20.550Z,100210.30
2019-03-25T07:57:51.502Z,100206.26
2019-03-25T08:00:22.711Z,100199.90
2019-03-25T08:02:53.672Z,100200.98
2019-03-25T08:05:24.364Z,100191.89
2019-03-25T08:07:55.030Z,100190.09
2019-03-25T08:10:34.220Z,100186.95
2019-03-25T08:13:05.405Z,100187.12
2019-03-25T08:15:36.504Z,100185.91
2019-03-25T08:18:07.691Z,100185.48
2019-03-25T08:20:38.736Z,100191.80
2019-03-25T08:23:09.773Z,100194.93
2019-03-25T08:25:40.435Z,100190.48
2019-03-25T08:28:11.103Z,100190.13
2019-03-25T08:30:41.830Z,100193.13
2019-03-25T08:33:12.546Z,100198.17
2019-03-25T08:35:43.625Z,100213.86
2019-03-25T08:38:15.229Z,100235.45
2019-03-25T08:40:45.956Z,100232.13
2019-03-25T08:43:16.682Z,100223.17
2019-03-25T08:45:47.730Z,100232.58
2019-03-25T08:48:18.719Z,100227.97
2019-03-25T08:50:49.389Z,100229.61
2019-03-25T08:53:20.431Z,100233.45
2019-03-25T08:55:51.238Z,100232.39
2019-03-25T08:58:22.191Z,100247.67
2019-03-25T09:00:52.928Z,100249.74
2019-03-25T09:03:23.592Z,100256.44
2019-03-25T09:05:54.358Z,100253.23
2019-03-25T09:08:25.059Z,100251.34
2019-03-25T09:10:55.732Z,100247.73
2019-03-25T09:13:26.670Z,100256.40
2019-03-25T09:15:57.471Z,100250.02
2019-03-25T09:18:28.132Z,100260.21
2019-03-25T09:20:58.826Z,100258.94
2019-03-25T09:23:29.522Z,100251.70
2019-03-25T09:26:00.275Z,100245.69
2019-03-25T09:28:30.939Z,100254.28
2019-03-25T09:31:12.701Z,100250.98
2019-03-25T09:33:43.804Z,100254.37
2019-03-25T09:36:14.913Z,100255.42
2019-03-25T09:38:45.659Z,100261.02
2019-03-25T09:41:16.384Z,100267.13
2019-03-25T09:43:47.352Z,100264.08
2019-03-25T09:46:18.008Z,100281.04
2019-03-25T09:48:49.202Z,100284.72
2019-03-25T09:51:20.902Z,100287.48
2019-03-25T09:53:51.719Z,100287.49
2019-03-25T09:56:22.735Z,100286.08
2019-03-25T09:58:53.699Z,100288.19
2019-03-25T10:01:24.683Z,100284.53
2019-03-25T10:03:55.335Z,100286.38
2019-03-25T10:06:26.023Z,100286.79
2019-03-25T10:08:56.669Z,100279.56
2019-03-25T10:11:27.381Z,100278.39
2019-03-25T10:13:58.008Z,100275.68
2019-03-25T10:16:29.670Z,100278.89
2019-03-25T10:19:00.642Z,100271.30
2019-03-25T10:21:31.687Z,100265.23
2019-03-25T10:24:02.387Z,100256.45
2019-03-25T10:26:33.120Z,100248.21
2019-03-25T10:29:03.805Z,100244.80
2019-03-25T10:31:34.720Z,100240.22
2019-03-25T10:34:05.496Z,100250.09
2019-03-25T10:36:36.438Z,100302.71
2019-03-25T10:39:08.999Z,100307.01
2019-03-25T10:41:39.939Z,100304.19
2019-03-25T10:44:10.980Z,100294.53
2019-03-25T10:46:41.972Z,100286.23
2019-03-25T10:49:13.009Z,100286.39
2019-03-25T10:51:43.921Z,100280.09
2019-03-25T10:54:14.873Z,100278.02
2019-03-25T10:56:49.238Z,100263.70
2019-03-25T10:59:17.962Z,100262.26
2019-03-25T11:01:48.921Z,100250.28
2019-03-25T11:04:19.615Z,100245.66
2019-03-25T11:06:50.545Z,100251.42
2019-03-25T11:09:21.233Z,100244.73
2019-03-25T11:11:52.157Z,100253.24
2019-03-25T11:14:23.330Z,100253.58
2019-03-25T11:16:54.111Z,100259.88
2019-03-25T11:19:25.088Z,100253.51
2019-03-25T11:21:55.831Z,100238.73
2019-03-25T11:24:26.753Z,100239.83
2019-03-25T11:26:57.674Z,100244.05
2019-03-25T11:29:28.677Z,100243.80
2019-03-25T11:31:59.773Z,100246.30
2019-03-25T11:34:30.521Z,100239.30
2019-03-25T11:37:01.444Z,100245.84
2019-03-25T11:39:32.161Z,100246.87
2019-03-25T11:42:02.826Z,100251.54
2019-03-25T11:44:33.803Z,100241.17
2019-03-25T11:47:04.736Z,100244.61
2019-03-25T11:49:35.420Z,100241.28
2019-03-25T11:52:13.665Z,100243.50
2019-03-25T11:54:44.354Z,100238.36
2019-03-25T11:57:15.314Z,100242.96
2019-03-25T11:59:46.252Z,100247.83
2019-03-25T12:02:17.905Z,100247.70
2019-03-25T12:04:49.927Z,100237.63
2019-03-25T12:07:20.610Z,100244.05
2019-03-25T12:09:51.273Z,100242.56
2019-03-25T12:12:22.245Z,100240.23
2019-03-25T12:14:53.187Z,100247.72
2019-03-25T12:17:24.188Z,100238.13
2019-03-25T12:19:55.107Z,100239.81
2019-03-25T12:22:41.038Z,100231.81
2019-03-25T12:25:18.339Z,100239.17
2019-03-25T12:27:49.004Z,100232.31
2019-03-25T12:30:20.112Z,100220.44
2019-03-25T12:32:50.863Z,100222.50
2019-03-25T12:35:21.814Z,100222.16
2019-03-25T12:37:52.506Z,100217.99
2019-03-25T12:40:23.172Z,100227.99
2019-03-25T12:42:54.170Z,100234.27
2019-03-25T12:45:25.148Z,100230.78
2019-03-25T12:47:55.847Z,100237.06
2019-03-25T12:50:26.497Z,100229.67
2019-03-25T12:52:57.292Z,100228.56
2019-03-25T12:55:27.927Z,100226.48
2019-03-25T12:57:58.582Z,100223.03
2019-03-25T13:00:43.959Z,100217.05
2019-03-25T13:03:14.653Z,100213.48
2019-03-25T13:05:45.777Z,100213.01
2019-03-25T13:08:16.458Z,100210.95
2019-03-25T13:10:47.191Z,100212.77
2019-03-25T13:13:17.923Z,100216.30
2019-03-25T13:15:48.974Z,100218.64
2019-03-25T13:18:19.653Z,100209.23
2019-03-25T13:20:50.495Z,100219.72
2019-03-25T13:23:21.157Z,100219.73
2019-03-25T13:25:52.284Z,100227.86
2019-03-25T13:36:25.258Z,100224.88
2019-03-25T13:39:02.084Z,100223.60
2019-03-25T13:42:37.478Z,100227.48
2019-03-25T13:45:15.469Z,100230.06
2019-03-25T13:47:46.138Z,100232.06
2019-03-25T13:50:17.320Z,100238.00
2019-03-25T13:52:48.340Z,100244.43
2019-03-25T13:55:19.151Z,100256.05
2019-03-25T13:57:49.813Z,100258.73
2019-03-25T14:00:25.342Z,100256.36
2019-03-25T14:02:56.023Z,100263.34
2019-03-25T14:05:26.707Z,100264.71
2019-03-25T14:07:57.645Z,100262.20
2019-03-25T14:10:29.656Z,100268.84
2019-03-25T14:13:00.382Z,100268.09
2019-03-25T14:15:31.392Z,100280.89
2019-03-25T14:18:02.086Z,100295.53
2019-03-25T14:20:32.838Z,100306.59
2019-03-25T14:23:05.371Z,100322.73
2019-03-25T14:25:37.680Z,100323.07
2019-03-25T14:28:08.339Z,100320.53
2019-03-25T14:30:39.030Z,100322.95
2019-03-25T14:33:09.699Z,100322.16
2019-03-25T14:35:40.443Z,100317.48
2019-03-25T14:38:12.372Z,100319.59
2019-03-25T14:40:43.280Z,100330.89
2019-03-25T14:43:13.959Z,100338.72
2019-03-25T14:45:44.751Z,100342.48
2019-03-25T14:48:15.424Z,100343.58
2019-03-25T14:50:46.385Z,100344.12
2019-03-25T14:53:17.300Z,100348.69
2019-03-25T14:55:48.223Z,100346.05
2019-03-25T14:58:18.902Z,100343.38
2019-03-25T15:00:50.777Z,100340.23
2019-03-25T15:03:21.485Z,100359.64
2019-03-25T15:05:52.396Z,100395.36
2019-03-25T15:08:23.051Z,100414.16
2019-03-25T15:10:54.014Z,100406.78
2019-03-25T15:13:24.713Z,100409.73
2019-03-25T15:15:55.455Z,100409.25
2019-03-25T15:18:26.387Z,100417.73
2019-03-25T15:20:57.165Z,100410.80
2019-03-25T15:23:27.807Z,100418.72
2019-03-25T15:25:59.744Z,100418.23
2019-03-25T15:28:30.410Z,100424.33
2019-03-25T15:31:01.387Z,100418.78
2019-03-25T15:33:32.120Z,100420.76
2019-03-25T15:36:02.751Z,100423.59
2019-03-25T15:38:33.706Z,100420.44
2019-03-25T15:41:04.655Z,100419.69
2019-03-25T15:43:35.416Z,100428.98
2019-03-25T15:46:06.372Z,100437.53
2019-03-25T15:48:37.020Z,100432.14
2019-03-25T15:51:07.738Z,100439.22
2019-03-25T15:53:38.420Z,100440.03
2019-03-25T15:56:09.155Z,100438.34
2019-03-25T15:58:39.813Z,100431.68
2019-03-25T16:01:10.565Z,100440.14
2019-03-25T16:03:41.256Z,100437.59
2019-03-25T16:06:11.922Z,100444.58
2019-03-25T16:08:42.896Z,100440.23
2019-03-25T16:11:13.560Z,100442.52
2019-03-25T16:13:44.270Z,100442.48
2019-03-25T16:16:14.935Z,100451.25
2019-03-25T16:18:45.943Z,100456.73
2019-03-25T16:21:16.731Z,100454.89
2019-03-25T16:23:47.670Z,100458.38
2019-03-25T16:26:19.703Z,100466.55
2019-03-25T16:28:50.356Z,100458.67
2019-03-25T16:31:21.056Z,100464.35
2019-03-25T16:33:51.970Z,100467.48
2019-03-25T16:36:22.732Z,100473.73
2019-03-25T16:38:53.639Z,100477.37
2019-03-25T16:41:24.619Z,100479.84
2019-03-25T16:43:55.562Z,100487.87
2019-03-25T16:46:26.464Z,100493.59
2019-03-25T16:48:57.151Z,100499.99
2019-03-25T16:51:28.073Z,100504.88
2019-03-25T16:54:00.581Z,100505.94
2019-03-25T16:56:31.653Z,100527.61
2019-03-25T16:59:02.694Z,100554.08
2019-03-25T17:01:33.338Z,100560.75
2019-03-25T17:04:04.311Z,100569.74
2019-03-25T17:06:34.990Z,100575.02
2019-03-25T17:09:07.278Z,100590.40
2019-03-25T17:11:38.338Z,100597.20
2019-03-25T17:14:09.067Z,100588.20
2019-03-25T17:16:40.187Z,100589.16
2019-03-25T17:19:10.887Z,100594.02
2019-03-25T17:21:41.572Z,100589.21
2019-03-25T17:24:14.248Z,100599.16
2019-03-25T17:26:45.013Z,100601.56
2019-03-25T17:29:15.674Z,100602.84
2019-03-25T17:31:46.625Z,100603.55
2019-03-25T17:34:17.607Z,100600.08
2019-03-25T17:36:48.562Z,100601.45
2019-03-25T17:39:19.223Z,100603.01
2019-03-25T17:41:50.257Z,100606.64
2019-03-25T17:44:21.014Z,100612.61
2019-03-25T17:46:51.999Z,100619.11
2019-03-25T17:49:22.726Z,100624.02
2019-03-25T17:51:53.403Z,100635.73
2019-03-25T17:54:24.346Z,100637.53
2019-03-25T17:56:56.437Z,100651.42
2019-03-25T17:59:27.415Z,100654.25
2019-03-25T18:01:58.450Z,100666.82
2019-03-25T18:04:29.119Z,100674.08
2019-03-25T18:07:02.320Z,100678.73
2019-03-25T18:09:32.672Z,100690.89
2019-03-25T18:12:03.634Z,100690.97
2019-03-25T18:14:34.322Z,100699.79
2019-03-25T18:17:05.501Z,100707.46
2019-03-25T18:19:36.451Z,100714.34
2019-03-25T18:22:07.239Z,100718.25
2019-03-25T18:24:38.220Z,100724.00
2019-03-25T18:27:09.187Z,100729.28
2019-03-25T18:29:40.824Z,100734.93
2019-03-25T18:32:11.835Z,100736.54
2019-03-25T18:34:42.513Z,100733.61
2019-03-25T18:37:13.185Z,100745.48
2019-03-25T18:39:43.848Z,100749.13
2019-03-25T18:42:15.102Z,100752.97
2019-03-25T18:44:46.670Z,100754.28
2019-03-25T18:47:17.346Z,100765.33
2019-03-25T18:49:48.052Z,100767.52
2019-03-25T18:52:18.738Z,100782.16
2019-03-25T18:54:50.432Z,100785.64
2019-03-25T18:57:21.397Z,100784.23
2019-03-25T18:59:52.365Z,100782.00
2019-03-25T19:02:23.187Z,100793.27
2019-03-25T19:04:53.839Z,100802.72
2019-03-25T19:07:26.135Z,100803.20
2019-03-25T19:09:57.064Z,100808.29
2019-03-25T19:12:27.834Z,100808.14
2019-03-25T19:14:58.769Z,100807.78
2019-03-25T19:17:29.789Z,100811.88
2019-03-25T19:20:00.759Z,100815.00
2019-03-25T19:22:31.730Z,100821.38
2019-03-25T19:25:02.770Z,100829.81
2019-03-25T19:27:33.759Z,100836.78
2019-03-25T19:30:07.119Z,100829.44
2019-03-25T19:32:38.169Z,100836.94
2019-03-25T19:35:11.573Z,100834.92
2019-03-25T19:37:43.787Z,100840.12
2019-03-25T19:40:14.955Z,100846.02
2019-03-25T19:42:45.674Z,100847.56
2019-03-25T19:45:17.010Z,100845.08
2019-03-25T19:47:49.484Z,100849.12
2019-03-25T19:50:20.746Z,100854.18
2019-03-25T19:52:51.736Z,100862.30
2019-03-25T19:55:22.392Z,100869.22
2019-03-25T19:57:53.089Z,100877.38
2019-03-25T20:00:38.830Z,100876.92
2019-03-25T20:03:11.325Z,100888.80
2019-03-25T20:05:43.234Z,100893.22
2019-03-25T20:08:13.995Z,100893.81
2019-03-25T20:10:44.692Z,100899.09
2019-03-25T20:13:15.871Z,100894.37
2019-03-25T20:15:46.982Z,100906.47
2019-03-25T20:18:18.772Z,100909.67
2019-03-25T20:20:50.691Z,100908.83
2019-03-25T20:23:21.343Z,100913.31
2019-03-25T20:25:52.077Z,100916.17
2019-03-25T20:28:22.811Z,100924.62
2019-03-25T20:30:54.745Z,100923.00
2019-03-25T20:33:25.759Z,100930.53
2019-03-25T20:35:56.698Z,100930.09
2019-03-25T20:38:27.411Z,100930.22
2019-03-25T20:40:58.113Z,100934.55
2019-03-25T20:43:29.102Z,100942.19
2019-03-25T20:46:00.128Z,100942.34
2019-03-25T20:48:32.392Z,100944.20
2019-03-25T20:51:03.068Z,100952.52
2019-03-25T20:53:34.056Z,100949.69
2019-03-25T20:56:05.191Z,100959.63
2019-03-25T20:58:36.306Z,100964.58
2019-03-25T21:01:07.027Z,100969.73
2019-03-25T21:03:37.799Z,100974.23
2019-03-25T21:06:08.532Z,100971.44
2019-03-25T21:08:39.570Z,100968.01
2019-03-25T21:11:10.276Z,100977.91
2019-03-25T21:13:40.979Z,100974.23
2019-03-25T21:16:13.080Z,100980.20
2019-03-25T21:18:43.973Z,100922.14
2019-03-25T21:21:14.768Z,100980.20
2019-03-25T21:23:45.873Z,100984.47
2019-03-25T21:26:16.711Z,100983.02
2019-03-25T21:28:47.796Z,100983.41
2019-03-25T21:31:18.911Z,100984.56
2019-03-25T21:33:49.726Z,100988.14
2019-03-25T21:36:20.867Z,100986.10
2019-03-25T21:38:51.767Z,100981.39
2019-03-25T21:41:22.562Z,100985.31
2019-03-25T21:43:53.639Z,100980.09
2019-03-25T21:46:27.170Z,100986.47
2019-03-25T21:48:57.844Z,100986.37
2019-03-25T21:51:28.609Z,100994.48
2019-03-25T21:53:59.466Z,100988.73
2019-03-25T21:56:30.321Z,100992.66
2019-03-25T21:59:01.308Z,100995.39
2019-03-25T22:01:31.997Z,100991.84
2019-03-25T22:04:03.162Z,101001.34
2019-03-25T22:06:33.897Z,101001.56
2019-03-25T22:09:06.403Z,101006.63
2019-03-25T22:11:37.399Z,101007.72
2019-03-25T22:14:08.088Z,101014.48
2019-03-25T22:16:40.203Z,101016.66
2019-03-25T22:19:11.342Z,101016.70
2019-03-25T22:21:42.004Z,101021.98
2019-03-25T22:24:12.740Z,101018.22
2019-03-25T22:26:43.860Z,101023.55
2019-03-25T22:29:14.532Z,101024.96
2019-03-25T22:31:45.486Z,101021.23
2019-03-25T22:34:16.180Z,101025.81
2019-03-25T22:36:47.157Z,101026.98
2019-03-25T22:39:18.301Z,101031.25
2019-03-25T22:41:49.153Z,101032.63
2019-03-25T22:44:19.836Z,101041.85
2019-03-25T22:46:50.513Z,101045.81
2019-03-25T22:49:21.210Z,101052.88
2019-03-25T22:51:51.892Z,101049.53
2019-03-25T22:54:22.670Z,101047.51
2019-03-25T22:56:53.381Z,101050.36
2019-03-25T22:59:24.595Z,101050.58
2019-03-25T23:01:55.653Z,101041.82
2019-03-25T23:04:26.303Z,101054.11
2019-03-25T23:06:57.345Z,101064.45
2019-03-25T23:09:28.273Z,101070.65
2019-03-25T23:12:00.932Z,101067.00
2019-03-25T23:14:32.160Z,101074.61
2019-03-25T23:17:02.850Z,101066.36
2019-03-25T23:19:33.815Z,101067.89
2019-03-25T23:22:04.514Z,101071.41
2019-03-25T23:24:35.490Z,101074.39
2019-03-25T23:27:07.546Z,101073.84
2019-03-25T23:29:38.204Z,101085.33
2019-03-25T23:32:08.895Z,101090.25
2019-03-25T23:34:39.963Z,101088.61
2019-03-25T23:37:11.723Z,101085.83
2019-03-25T23:39:42.654Z,101092.89
2019-03-25T23:42:14.954Z,101096.34
2019-03-25T23:44:45.639Z,101105.69
2019-03-25T23:47:16.316Z,101110.78
2019-03-25T23:49:47.315Z,101116.64
2019-03-25T23:52:18.352Z,101122.34
2019-03-25T23:54:49.207Z,101129.14
2019-03-25T23:57:20.136Z,101134.70
2019-03-25T23:59:50.815Z,101140.95
